sensor_id;sensor_type;location;lat;lon;timestamp;P1;durP1;ratioP1;P2;durP2;ratioP2
4833;SDS011;12895;51.064;7.028;2024-01-30T00:00:04;12.70;;;11.60;;
4833;SDS011;12895;51.064;7.028;2024-01-30T00:02:52;16.20;;;11.77;;
4833;SDS011;12895;51.064;7.028;2024-01-30T00:05:39;12.33;;;11.13;;
4833;SDS011;12895;51.064;7.028;2024-01-30T00:08:28;13.03;;;10.73;;
4833;SDS011;12895;51.064;7.028;2024-01-30T00:11:15;13.10;;;11.80;;
4833;SDS011;12895;51.064;7.028;2024-01-30T00:14:03;12.97;;;10.60;;
4833;SDS011;12895;51.064;7.028;2024-01-30T00:16:50;12.50;;;11.20;;
4833;SDS011;12895;51.064;7.028;2024-01-30T00:19:38;12.47;;;11.17;;
4833;SDS011;12895;51.064;7.028;2024-01-30T00:22:25;12.33;;;11.00;;
4833;SDS011;12895;51.064;7.028;2024-01-30T00:25:14;12.63;;;11.20;;
4833;SDS011;12895;51.064;7.028;2024-01-30T00:28:04;12.27;;;11.17;;
4833;SDS011;12895;51.064;7.028;2024-01-30T00:30:52;13.83;;;12.53;;
4833;SDS011;12895;51.064;7.028;2024-01-30T00:33:40;13.50;;;12.13;;
4833;SDS011;12895;51.064;7.028;2024-01-30T00:36:27;13.93;;;11.57;;
4833;SDS011;12895;51.064;7.028;2024-01-30T00:39:15;13.83;;;12.20;;
4833;SDS011;12895;51.064;7.028;2024-01-30T00:42:06;13.13;;;11.73;;
4833;SDS011;12895;51.064;7.028;2024-01-30T00:44:53;13.13;;;11.70;;
4833;SDS011;12895;51.064;7.028;2024-01-30T00:47:41;13.87;;;12.50;;
4833;SDS011;12895;51.064;7.028;2024-01-30T00:50:28;12.30;;;11.10;;
4833;SDS011;12895;51.064;7.028;2024-01-30T00:53:15;12.37;;;11.20;;
4833;SDS011;12895;51.064;7.028;2024-01-30T00:56:04;17.10;;;12.70;;
4833;SDS011;12895;51.064;7.028;2024-01-30T00:58:53;13.37;;;12.07;;
4833;SDS011;12895;51.064;7.028;2024-01-30T01:01:40;12.93;;;11.50;;
4833;SDS011;12895;51.064;7.028;2024-01-30T01:04:27;13.07;;;11.83;;
4833;SDS011;12895;51.064;7.028;2024-01-30T01:07:14;13.97;;;12.60;;
4833;SDS011;12895;51.064;7.028;2024-01-30T01:10:01;13.13;;;11.60;;
4833;SDS011;12895;51.064;7.028;2024-01-30T01:12:49;13.37;;;12.07;;
4833;SDS011;12895;51.064;7.028;2024-01-30T01:15:37;14.60;;;11.70;;
4833;SDS011;12895;51.064;7.028;2024-01-30T01:18:25;13.90;;;12.50;;
4833;SDS011;12895;51.064;7.028;2024-01-30T01:21:12;12.20;;;10.90;;
4833;SDS011;12895;51.064;7.028;2024-01-30T01:24:00;14.23;;;12.80;;
4833;SDS011;12895;51.064;7.028;2024-01-30T01:26:48;14.80;;;12.47;;
4833;SDS011;12895;51.064;7.028;2024-01-30T01:29:35;13.63;;;12.23;;
4833;SDS011;12895;51.064;7.028;2024-01-30T01:32:24;13.57;;;12.10;;
4833;SDS011;12895;51.064;7.028;2024-01-30T01:35:11;12.87;;;11.57;;
4833;SDS011;12895;51.064;7.028;2024-01-30T01:37:59;14.03;;;11.37;;
4833;SDS011;12895;51.064;7.028;2024-01-30T01:40:46;13.60;;;11.67;;
4833;SDS011;12895;51.064;7.028;2024-01-30T01:43:33;13.10;;;11.70;;
4833;SDS011;12895;51.064;7.028;2024-01-30T01:46:26;12.87;;;11.57;;
4833;SDS011;12895;51.064;7.028;2024-01-30T01:49:16;13.20;;;11.80;;
4833;SDS011;12895;51.064;7.028;2024-01-30T01:52:04;13.50;;;12.10;;
4833;SDS011;12895;51.064;7.028;2024-01-30T01:54:55;12.87;;;11.47;;
4833;SDS011;12895;51.064;7.028;2024-01-30T01:57:42;12.73;;;11.30;;
4833;SDS011;12895;51.064;7.028;2024-01-30T02:00:32;12.97;;;11.67;;
4833;SDS011;12895;51.064;7.028;2024-01-30T02:03:21;14.03;;;11.50;;
4833;SDS011;12895;51.064;7.028;2024-01-30T02:06:13;15.80;;;12.00;;
4833;SDS011;12895;51.064;7.028;2024-01-30T02:09:01;13.10;;;11.83;;
4833;SDS011;12895;51.064;7.028;2024-01-30T02:11:50;13.13;;;11.70;;
4833;SDS011;12895;51.064;7.028;2024-01-30T02:14:44;12.27;;;11.07;;
4833;SDS011;12895;51.064;7.028;2024-01-30T02:17:31;13.47;;;12.07;;
4833;SDS011;12895;51.064;7.028;2024-01-30T02:20:20;13.63;;;12.27;;
4833;SDS011;12895;51.064;7.028;2024-01-30T02:23:10;12.33;;;11.13;;
4833;SDS011;12895;51.064;7.028;2024-01-30T02:26:02;11.43;;;10.33;;
4833;SDS011;12895;51.064;7.028;2024-01-30T02:28:52;14.33;;;11.80;;
4833;SDS011;12895;51.064;7.028;2024-01-30T02:31:39;12.50;;;11.27;;
4833;SDS011;12895;51.064;7.028;2024-01-30T02:34:27;12.63;;;11.43;;
4833;SDS011;12895;51.064;7.028;2024-01-30T02:37:14;13.37;;;11.80;;
4833;SDS011;12895;51.064;7.028;2024-01-30T02:40:05;12.23;;;11.03;;
4833;SDS011;12895;51.064;7.028;2024-01-30T02:42:53;14.13;;;11.17;;
4833;SDS011;12895;51.064;7.028;2024-01-30T02:45:40;12.17;;;10.97;;
4833;SDS011;12895;51.064;7.028;2024-01-30T02:48:28;12.37;;;10.90;;
4833;SDS011;12895;51.064;7.028;2024-01-30T02:51:21;14.60;;;11.60;;
4833;SDS011;12895;51.064;7.028;2024-01-30T02:54:10;11.47;;;10.47;;
4833;SDS011;12895;51.064;7.028;2024-01-30T02:56:59;13.93;;;11.03;;
4833;SDS011;12895;51.064;7.028;2024-01-30T02:59:46;12.83;;;11.50;;
4833;SDS011;12895;51.064;7.028;2024-01-30T03:02:33;13.00;;;10.90;;
4833;SDS011;12895;51.064;7.028;2024-01-30T03:05:21;12.97;;;11.60;;
4833;SDS011;12895;51.064;7.028;2024-01-30T03:08:08;12.33;;;10.43;;
4833;SDS011;12895;51.064;7.028;2024-01-30T03:10:55;13.03;;;10.77;;
4833;SDS011;12895;51.064;7.028;2024-01-30T03:13:49;10.67;;;9.57;;
4833;SDS011;12895;51.064;7.028;2024-01-30T03:16:39;11.60;;;10.07;;
4833;SDS011;12895;51.064;7.028;2024-01-30T03:19:26;11.90;;;10.67;;
4833;SDS011;12895;51.064;7.028;2024-01-30T03:22:15;11.63;;;10.57;;
4833;SDS011;12895;51.064;7.028;2024-01-30T03:25:04;11.20;;;10.10;;
4833;SDS011;12895;51.064;7.028;2024-01-30T03:27:52;11.20;;;10.20;;
4833;SDS011;12895;51.064;7.028;2024-01-30T03:30:40;11.03;;;10.07;;
4833;SDS011;12895;51.064;7.028;2024-01-30T03:33:27;12.30;;;11.00;;
4833;SDS011;12895;51.064;7.028;2024-01-30T03:36:15;13.73;;;11.00;;
4833;SDS011;12895;51.064;7.028;2024-01-30T03:39:02;11.17;;;10.10;;
4833;SDS011;12895;51.064;7.028;2024-01-30T03:41:50;10.53;;;9.30;;
4833;SDS011;12895;51.064;7.028;2024-01-30T03:44:37;12.73;;;10.90;;
4833;SDS011;12895;51.064;7.028;2024-01-30T03:47:25;12.00;;;10.83;;
4833;SDS011;12895;51.064;7.028;2024-01-30T03:50:12;11.60;;;10.43;;
4833;SDS011;12895;51.064;7.028;2024-01-30T03:52:59;11.00;;;9.90;;
4833;SDS011;12895;51.064;7.028;2024-01-30T03:55:46;11.33;;;10.00;;
4833;SDS011;12895;51.064;7.028;2024-01-30T03:58:36;11.20;;;10.10;;
4833;SDS011;12895;51.064;7.028;2024-01-30T04:01:23;9.87;;;9.07;;
4833;SDS011;12895;51.064;7.028;2024-01-30T04:04:15;11.43;;;10.03;;
4833;SDS011;12895;51.064;7.028;2024-01-30T04:07:03;10.50;;;9.40;;
4833;SDS011;12895;51.064;7.028;2024-01-30T04:09:50;11.13;;;9.80;;
4833;SDS011;12895;51.064;7.028;2024-01-30T04:12:37;11.00;;;9.90;;
4833;SDS011;12895;51.064;7.028;2024-01-30T04:15:24;10.47;;;9.37;;
4833;SDS011;12895;51.064;7.028;2024-01-30T04:18:11;12.70;;;10.40;;
4833;SDS011;12895;51.064;7.028;2024-01-30T04:21:00;11.40;;;10.30;;
4833;SDS011;12895;51.064;7.028;2024-01-30T04:23:48;11.77;;;10.67;;
4833;SDS011;12895;51.064;7.028;2024-01-30T04:26:37;11.07;;;9.97;;
4833;SDS011;12895;51.064;7.028;2024-01-30T04:29:24;10.70;;;9.60;;
4833;SDS011;12895;51.064;7.028;2024-01-30T04:32:11;11.10;;;9.83;;
4833;SDS011;12895;51.064;7.028;2024-01-30T04:34:58;10.97;;;9.87;;
4833;SDS011;12895;51.064;7.028;2024-01-30T04:37:47;10.20;;;9.07;;
4833;SDS011;12895;51.064;7.028;2024-01-30T04:40:34;10.63;;;9.60;;
4833;SDS011;12895;51.064;7.028;2024-01-30T04:43:21;10.50;;;9.57;;
4833;SDS011;12895;51.064;7.028;2024-01-30T04:46:14;11.47;;;9.83;;
4833;SDS011;12895;51.064;7.028;2024-01-30T04:49:02;11.20;;;9.70;;
4833;SDS011;12895;51.064;7.028;2024-01-30T04:51:50;11.77;;;10.53;;
4833;SDS011;12895;51.064;7.028;2024-01-30T04:54:45;11.10;;;10.10;;
4833;SDS011;12895;51.064;7.028;2024-01-30T04:57:32;11.40;;;10.30;;
4833;SDS011;12895;51.064;7.028;2024-01-30T05:00:20;10.50;;;9.40;;
4833;SDS011;12895;51.064;7.028;2024-01-30T05:03:07;13.13;;;10.90;;
4833;SDS011;12895;51.064;7.028;2024-01-30T05:05:54;11.63;;;10.50;;
4833;SDS011;12895;51.064;7.028;2024-01-30T05:08:43;17.53;;;11.40;;
4833;SDS011;12895;51.064;7.028;2024-01-30T05:11:39;11.83;;;9.80;;
4833;SDS011;12895;51.064;7.028;2024-01-30T05:14:29;10.30;;;9.30;;
4833;SDS011;12895;51.064;7.028;2024-01-30T05:17:16;11.93;;;9.67;;
4833;SDS011;12895;51.064;7.028;2024-01-30T05:20:06;9.80;;;8.77;;
4833;SDS011;12895;51.064;7.028;2024-01-30T05:22:54;10.37;;;9.27;;
4833;SDS011;12895;51.064;7.028;2024-01-30T05:25:42;11.07;;;9.97;;
4833;SDS011;12895;51.064;7.028;2024-01-30T05:28:31;12.80;;;9.90;;
4833;SDS011;12895;51.064;7.028;2024-01-30T05:31:19;11.23;;;9.43;;
4833;SDS011;12895;51.064;7.028;2024-01-30T05:34:06;10.57;;;9.57;;
4833;SDS011;12895;51.064;7.028;2024-01-30T05:36:54;10.83;;;9.80;;
4833;SDS011;12895;51.064;7.028;2024-01-30T05:39:42;11.87;;;10.67;;
4833;SDS011;12895;51.064;7.028;2024-01-30T05:42:29;11.30;;;10.30;;
4833;SDS011;12895;51.064;7.028;2024-01-30T05:45:20;10.67;;;9.67;;
4833;SDS011;12895;51.064;7.028;2024-01-30T05:48:09;10.87;;;9.80;;
4833;SDS011;12895;51.064;7.028;2024-01-30T05:50:56;13.23;;;10.10;;
4833;SDS011;12895;51.064;7.028;2024-01-30T05:53:45;11.90;;;10.00;;
4833;SDS011;12895;51.064;7.028;2024-01-30T05:56:35;10.37;;;9.33;;
4833;SDS011;12895;51.064;7.028;2024-01-30T05:59:25;15.73;;;10.30;;
4833;SDS011;12895;51.064;7.028;2024-01-30T06:02:15;9.87;;;8.87;;
4833;SDS011;12895;51.064;7.028;2024-01-30T06:05:07;12.37;;;11.27;;
4833;SDS011;12895;51.064;7.028;2024-01-30T06:07:55;10.33;;;9.43;;
4833;SDS011;12895;51.064;7.028;2024-01-30T06:10:42;10.10;;;9.13;;
4833;SDS011;12895;51.064;7.028;2024-01-30T06:13:29;9.97;;;9.07;;
4833;SDS011;12895;51.064;7.028;2024-01-30T06:16:17;11.70;;;9.40;;
4833;SDS011;12895;51.064;7.028;2024-01-30T06:19:07;11.97;;;9.27;;
4833;SDS011;12895;51.064;7.028;2024-01-30T06:21:55;10.80;;;9.70;;
4833;SDS011;12895;51.064;7.028;2024-01-30T06:24:44;10.80;;;9.70;;
4833;SDS011;12895;51.064;7.028;2024-01-30T06:27:33;11.87;;;9.13;;
4833;SDS011;12895;51.064;7.028;2024-01-30T06:30:20;11.20;;;10.07;;
4833;SDS011;12895;51.064;7.028;2024-01-30T06:33:10;11.23;;;10.13;;
4833;SDS011;12895;51.064;7.028;2024-01-30T06:36:03;13.57;;;10.63;;
4833;SDS011;12895;51.064;7.028;2024-01-30T06:38:50;10.93;;;9.77;;
4833;SDS011;12895;51.064;7.028;2024-01-30T06:41:37;11.50;;;9.60;;
4833;SDS011;12895;51.064;7.028;2024-01-30T06:44:24;11.00;;;9.90;;
4833;SDS011;12895;51.064;7.028;2024-01-30T06:47:11;10.50;;;9.30;;
4833;SDS011;12895;51.064;7.028;2024-01-30T06:50:01;11.93;;;10.67;;
4833;SDS011;12895;51.064;7.028;2024-01-30T06:52:50;11.37;;;10.27;;
4833;SDS011;12895;51.064;7.028;2024-01-30T06:55:42;10.40;;;9.13;;
4833;SDS011;12895;51.064;7.028;2024-01-30T06:58:29;10.77;;;9.77;;
4833;SDS011;12895;51.064;7.028;2024-01-30T07:01:16;11.43;;;10.23;;
4833;SDS011;12895;51.064;7.028;2024-01-30T07:04:03;12.30;;;9.70;;
4833;SDS011;12895;51.064;7.028;2024-01-30T07:06:51;10.17;;;9.17;;
4833;SDS011;12895;51.064;7.028;2024-01-30T07:09:41;14.37;;;10.00;;
4833;SDS011;12895;51.064;7.028;2024-01-30T07:12:30;10.33;;;9.33;;
4833;SDS011;12895;51.064;7.028;2024-01-30T07:15:18;11.97;;;10.03;;
4833;SDS011;12895;51.064;7.028;2024-01-30T07:18:05;13.87;;;10.63;;
4833;SDS011;12895;51.064;7.028;2024-01-30T07:20:55;10.90;;;9.80;;
4833;SDS011;12895;51.064;7.028;2024-01-30T07:23:42;10.87;;;9.73;;
4833;SDS011;12895;51.064;7.028;2024-01-30T07:26:31;11.53;;;10.00;;
4833;SDS011;12895;51.064;7.028;2024-01-30T07:29:18;10.63;;;9.53;;
4833;SDS011;12895;51.064;7.028;2024-01-30T07:32:06;11.73;;;10.00;;
4833;SDS011;12895;51.064;7.028;2024-01-30T07:34:55;12.03;;;9.70;;
4833;SDS011;12895;51.064;7.028;2024-01-30T07:37:42;10.10;;;9.20;;
4833;SDS011;12895;51.064;7.028;2024-01-30T07:40:29;11.57;;;9.83;;
4833;SDS011;12895;51.064;7.028;2024-01-30T07:43:20;10.47;;;9.37;;
4833;SDS011;12895;51.064;7.028;2024-01-30T07:46:08;10.33;;;9.27;;
4833;SDS011;12895;51.064;7.028;2024-01-30T07:48:55;11.80;;;9.63;;
4833;SDS011;12895;51.064;7.028;2024-01-30T07:51:42;10.57;;;9.20;;
4833;SDS011;12895;51.064;7.028;2024-01-30T07:54:30;10.60;;;9.63;;
4833;SDS011;12895;51.064;7.028;2024-01-30T07:57:19;10.80;;;9.80;;
4833;SDS011;12895;51.064;7.028;2024-01-30T08:00:07;12.83;;;9.87;;
4833;SDS011;12895;51.064;7.028;2024-01-30T08:02:55;10.60;;;9.40;;
4833;SDS011;12895;51.064;7.028;2024-01-30T08:05:42;10.47;;;9.47;;
4833;SDS011;12895;51.064;7.028;2024-01-30T08:08:29;11.13;;;9.63;;
4833;SDS011;12895;51.064;7.028;2024-01-30T08:11:17;11.20;;;10.10;;
4833;SDS011;12895;51.064;7.028;2024-01-30T08:14:07;11.17;;;9.97;;
4833;SDS011;12895;51.064;7.028;2024-01-30T08:16:56;12.03;;;10.10;;
4833;SDS011;12895;51.064;7.028;2024-01-30T08:19:43;10.17;;;9.20;;
4833;SDS011;12895;51.064;7.028;2024-01-30T08:22:34;12.33;;;11.03;;
4833;SDS011;12895;51.064;7.028;2024-01-30T08:25:21;12.40;;;9.67;;
4833;SDS011;12895;51.064;7.028;2024-01-30T08:28:08;11.30;;;10.20;;
4833;SDS011;12895;51.064;7.028;2024-01-30T08:31:03;10.43;;;9.53;;
4833;SDS011;12895;51.064;7.028;2024-01-30T08:33:52;10.83;;;9.83;;
4833;SDS011;12895;51.064;7.028;2024-01-30T08:36:39;10.33;;;9.33;;
4833;SDS011;12895;51.064;7.028;2024-01-30T08:39:27;12.70;;;9.47;;
4833;SDS011;12895;51.064;7.028;2024-01-30T08:42:14;10.00;;;9.10;;
4833;SDS011;12895;51.064;7.028;2024-01-30T08:45:04;10.80;;;9.00;;
4833;SDS011;12895;51.064;7.028;2024-01-30T08:47:55;10.67;;;9.67;;
4833;SDS011;12895;51.064;7.028;2024-01-30T08:50:44;10.63;;;9.60;;
4833;SDS011;12895;51.064;7.028;2024-01-30T08:53:31;9.90;;;8.73;;
4833;SDS011;12895;51.064;7.028;2024-01-30T08:56:18;10.97;;;9.97;;
4833;SDS011;12895;51.064;7.028;2024-01-30T08:59:05;10.90;;;9.13;;
4833;SDS011;12895;51.064;7.028;2024-01-30T09:01:52;10.83;;;9.80;;
4833;SDS011;12895;51.064;7.028;2024-01-30T09:04:40;10.50;;;9.50;;
4833;SDS011;12895;51.064;7.028;2024-01-30T09:07:29;10.33;;;8.87;;
4833;SDS011;12895;51.064;7.028;2024-01-30T09:10:16;10.40;;;9.30;;
4833;SDS011;12895;51.064;7.028;2024-01-30T09:13:05;10.97;;;9.37;;
4833;SDS011;12895;51.064;7.028;2024-01-30T09:15:52;9.67;;;8.77;;
4833;SDS011;12895;51.064;7.028;2024-01-30T09:18:41;11.10;;;8.90;;
4833;SDS011;12895;51.064;7.028;2024-01-30T09:21:30;9.83;;;8.83;;
4833;SDS011;12895;51.064;7.028;2024-01-30T09:24:19;10.23;;;9.23;;
4833;SDS011;12895;51.064;7.028;2024-01-30T09:27:06;9.67;;;8.00;;
4833;SDS011;12895;51.064;7.028;2024-01-30T09:29:55;9.10;;;8.30;;
4833;SDS011;12895;51.064;7.028;2024-01-30T09:32:42;10.63;;;8.53;;
4833;SDS011;12895;51.064;7.028;2024-01-30T09:35:29;9.43;;;8.50;;
4833;SDS011;12895;51.064;7.028;2024-01-30T09:38:20;9.67;;;8.70;;
4833;SDS011;12895;51.064;7.028;2024-01-30T09:41:12;10.57;;;9.33;;
4833;SDS011;12895;51.064;7.028;2024-01-30T09:44:02;10.77;;;8.97;;
4833;SDS011;12895;51.064;7.028;2024-01-30T09:46:52;12.80;;;9.20;;
4833;SDS011;12895;51.064;7.028;2024-01-30T09:49:42;10.70;;;9.63;;
4833;SDS011;12895;51.064;7.028;2024-01-30T09:52:36;10.57;;;9.67;;
4833;SDS011;12895;51.064;7.028;2024-01-30T09:55:24;10.03;;;9.07;;
4833;SDS011;12895;51.064;7.028;2024-01-30T09:58:13;9.90;;;8.70;;
4833;SDS011;12895;51.064;7.028;2024-01-30T10:01:02;13.07;;;9.90;;
4833;SDS011;12895;51.064;7.028;2024-01-30T10:03:52;11.87;;;10.30;;
4833;SDS011;12895;51.064;7.028;2024-01-30T10:06:39;10.40;;;9.50;;
4833;SDS011;12895;51.064;7.028;2024-01-30T10:09:31;9.97;;;8.97;;
4833;SDS011;12895;51.064;7.028;2024-01-30T10:12:22;11.07;;;9.87;;
4833;SDS011;12895;51.064;7.028;2024-01-30T10:15:10;9.40;;;8.50;;
4833;SDS011;12895;51.064;7.028;2024-01-30T10:17:58;9.73;;;8.87;;
4833;SDS011;12895;51.064;7.028;2024-01-30T10:20:46;13.03;;;11.73;;
4833;SDS011;12895;51.064;7.028;2024-01-30T10:23:39;11.53;;;9.53;;
4833;SDS011;12895;51.064;7.028;2024-01-30T10:26:26;8.10;;;7.40;;
4833;SDS011;12895;51.064;7.028;2024-01-30T10:29:17;9.17;;;8.27;;
4833;SDS011;12895;51.064;7.028;2024-01-30T10:32:12;9.13;;;8.23;;
4833;SDS011;12895;51.064;7.028;2024-01-30T10:35:07;9.03;;;8.10;;
4833;SDS011;12895;51.064;7.028;2024-01-30T10:37:58;9.53;;;8.57;;
4833;SDS011;12895;51.064;7.028;2024-01-30T10:40:48;8.77;;;7.80;;
4833;SDS011;12895;51.064;7.028;2024-01-30T10:43:41;8.13;;;7.40;;
4833;SDS011;12895;51.064;7.028;2024-01-30T10:46:31;8.63;;;7.50;;
4833;SDS011;12895;51.064;7.028;2024-01-30T10:49:37;9.40;;;8.10;;
4833;SDS011;12895;51.064;7.028;2024-01-30T10:52:27;10.10;;;9.07;;
4833;SDS011;12895;51.064;7.028;2024-01-30T10:55:19;10.80;;;7.97;;
4833;SDS011;12895;51.064;7.028;2024-01-30T10:58:15;8.53;;;7.70;;
4833;SDS011;12895;51.064;7.028;2024-01-30T11:01:02;9.30;;;8.40;;
4833;SDS011;12895;51.064;7.028;2024-01-30T11:03:54;9.13;;;7.97;;
4833;SDS011;12895;51.064;7.028;2024-01-30T11:06:51;9.67;;;8.60;;
4833;SDS011;12895;51.064;7.028;2024-01-30T11:09:39;11.30;;;10.10;;
4833;SDS011;12895;51.064;7.028;2024-01-30T11:12:27;8.33;;;7.63;;
4833;SDS011;12895;51.064;7.028;2024-01-30T11:15:23;7.50;;;6.90;;
4833;SDS011;12895;51.064;7.028;2024-01-30T11:18:12;8.27;;;7.20;;
4833;SDS011;12895;51.064;7.028;2024-01-30T11:21:10;8.67;;;7.77;;
4833;SDS011;12895;51.064;7.028;2024-01-30T11:24:03;11.57;;;7.50;;
4833;SDS011;12895;51.064;7.028;2024-01-30T11:26:55;9.20;;;7.13;;
4833;SDS011;12895;51.064;7.028;2024-01-30T11:29:43;7.50;;;6.73;;
4833;SDS011;12895;51.064;7.028;2024-01-30T11:32:42;7.83;;;7.03;;
4833;SDS011;12895;51.064;7.028;2024-01-30T11:35:33;8.37;;;7.57;;
4833;SDS011;12895;51.064;7.028;2024-01-30T11:38:22;7.77;;;7.07;;
4833;SDS011;12895;51.064;7.028;2024-01-30T11:41:12;9.60;;;7.43;;
4833;SDS011;12895;51.064;7.028;2024-01-30T11:44:03;9.20;;;7.27;;
4833;SDS011;12895;51.064;7.028;2024-01-30T11:46:51;8.50;;;7.70;;
4833;SDS011;12895;51.064;7.028;2024-01-30T11:49:40;8.47;;;7.73;;
4833;SDS011;12895;51.064;7.028;2024-01-30T11:52:28;10.20;;;7.03;;
4833;SDS011;12895;51.064;7.028;2024-01-30T11:55:15;10.37;;;7.33;;
4833;SDS011;12895;51.064;7.028;2024-01-30T11:58:06;8.17;;;7.03;;
4833;SDS011;12895;51.064;7.028;2024-01-30T12:00:54;9.43;;;7.40;;
4833;SDS011;12895;51.064;7.028;2024-01-30T12:03:49;7.87;;;7.23;;
4833;SDS011;12895;51.064;7.028;2024-01-30T12:06:36;10.53;;;7.73;;
4833;SDS011;12895;51.064;7.028;2024-01-30T12:09:27;11.17;;;8.93;;
4833;SDS011;12895;51.064;7.028;2024-01-30T12:12:14;15.57;;;10.20;;
4833;SDS011;12895;51.064;7.028;2024-01-30T12:15:03;34.17;;;24.97;;
4833;SDS011;12895;51.064;7.028;2024-01-30T12:17:51;14.20;;;12.70;;
4833;SDS011;12895;51.064;7.028;2024-01-30T12:20:38;12.60;;;9.20;;
4833;SDS011;12895;51.064;7.028;2024-01-30T12:23:26;7.97;;;7.17;;
4833;SDS011;12895;51.064;7.028;2024-01-30T12:26:13;12.57;;;9.57;;
4833;SDS011;12895;51.064;7.028;2024-01-30T12:29:00;9.70;;;8.70;;
4833;SDS011;12895;51.064;7.028;2024-01-30T12:31:53;16.83;;;12.30;;
4833;SDS011;12895;51.064;7.028;2024-01-30T12:34:41;18.47;;;14.70;;
4833;SDS011;12895;51.064;7.028;2024-01-30T12:37:29;12.70;;;10.80;;
4833;SDS011;12895;51.064;7.028;2024-01-30T12:40:16;15.10;;;11.40;;
4833;SDS011;12895;51.064;7.028;2024-01-30T12:43:04;11.47;;;10.10;;
4833;SDS011;12895;51.064;7.028;2024-01-30T12:45:52;15.97;;;13.17;;
4833;SDS011;12895;51.064;7.028;2024-01-30T12:48:41;13.60;;;11.90;;
4833;SDS011;12895;51.064;7.028;2024-01-30T12:51:28;11.93;;;10.47;;
4833;SDS011;12895;51.064;7.028;2024-01-30T12:54:15;11.53;;;10.40;;
4833;SDS011;12895;51.064;7.028;2024-01-30T12:57:03;11.93;;;10.10;;
4833;SDS011;12895;51.064;7.028;2024-01-30T12:59:50;10.20;;;9.20;;
4833;SDS011;12895;51.064;7.028;2024-01-30T13:02:40;13.60;;;10.10;;
4833;SDS011;12895;51.064;7.028;2024-01-30T13:05:31;12.53;;;9.80;;
4833;SDS011;12895;51.064;7.028;2024-01-30T13:08:18;12.70;;;9.20;;
4833;SDS011;12895;51.064;7.028;2024-01-30T13:11:10;14.00;;;11.50;;
4833;SDS011;12895;51.064;7.028;2024-01-30T13:13:58;14.30;;;11.43;;
4833;SDS011;12895;51.064;7.028;2024-01-30T13:16:45;11.90;;;10.50;;
4833;SDS011;12895;51.064;7.028;2024-01-30T13:19:32;11.47;;;9.87;;
4833;SDS011;12895;51.064;7.028;2024-01-30T13:22:21;14.83;;;12.37;;
4833;SDS011;12895;51.064;7.028;2024-01-30T13:25:08;13.03;;;11.27;;
4833;SDS011;12895;51.064;7.028;2024-01-30T13:27:55;13.83;;;11.00;;
4833;SDS011;12895;51.064;7.028;2024-01-30T13:30:42;12.17;;;10.80;;
4833;SDS011;12895;51.064;7.028;2024-01-30T13:33:29;12.07;;;10.00;;
4833;SDS011;12895;51.064;7.028;2024-01-30T13:36:17;12.33;;;9.67;;
4833;SDS011;12895;51.064;7.028;2024-01-30T13:39:05;16.33;;;12.00;;
4833;SDS011;12895;51.064;7.028;2024-01-30T13:41:58;12.13;;;10.33;;
4833;SDS011;12895;51.064;7.028;2024-01-30T13:44:45;14.03;;;10.43;;
4833;SDS011;12895;51.064;7.028;2024-01-30T13:47:32;12.83;;;11.40;;
4833;SDS011;12895;51.064;7.028;2024-01-30T13:50:20;11.63;;;10.40;;
4833;SDS011;12895;51.064;7.028;2024-01-30T13:53:07;12.40;;;10.57;;
4833;SDS011;12895;51.064;7.028;2024-01-30T13:55:58;12.67;;;11.37;;
4833;SDS011;12895;51.064;7.028;2024-01-30T13:58:51;10.80;;;8.63;;
4833;SDS011;12895;51.064;7.028;2024-01-30T14:01:41;13.13;;;9.23;;
4833;SDS011;12895;51.064;7.028;2024-01-30T14:04:28;11.27;;;8.53;;
4833;SDS011;12895;51.064;7.028;2024-01-30T14:07:15;9.13;;;8.07;;
4833;SDS011;12895;51.064;7.028;2024-01-30T14:10:04;10.77;;;8.27;;
4833;SDS011;12895;51.064;7.028;2024-01-30T14:12:53;9.13;;;8.23;;
4833;SDS011;12895;51.064;7.028;2024-01-30T14:15:40;10.90;;;7.63;;
4833;SDS011;12895;51.064;7.028;2024-01-30T14:18:28;11.87;;;8.33;;
4833;SDS011;12895;51.064;7.028;2024-01-30T14:21:15;16.13;;;8.20;;
4833;SDS011;12895;51.064;7.028;2024-01-30T14:24:05;9.40;;;8.00;;
4833;SDS011;12895;51.064;7.028;2024-01-30T14:26:52;10.90;;;8.10;;
4833;SDS011;12895;51.064;7.028;2024-01-30T14:29:42;11.13;;;9.20;;
4833;SDS011;12895;51.064;7.028;2024-01-30T14:32:32;13.27;;;8.80;;
4833;SDS011;12895;51.064;7.028;2024-01-30T14:35:20;9.43;;;8.43;;
4833;SDS011;12895;51.064;7.028;2024-01-30T14:38:07;9.40;;;8.47;;
4833;SDS011;12895;51.064;7.028;2024-01-30T14:40:55;17.80;;;9.20;;
4833;SDS011;12895;51.064;7.028;2024-01-30T14:43:42;10.60;;;8.53;;
4833;SDS011;12895;51.064;7.028;2024-01-30T14:46:31;11.47;;;9.17;;
4833;SDS011;12895;51.064;7.028;2024-01-30T14:49:18;13.03;;;9.00;;
4833;SDS011;12895;51.064;7.028;2024-01-30T14:52:05;11.50;;;9.10;;
4833;SDS011;12895;51.064;7.028;2024-01-30T14:54:52;15.10;;;10.03;;
4833;SDS011;12895;51.064;7.028;2024-01-30T14:57:39;14.47;;;10.47;;
4833;SDS011;12895;51.064;7.028;2024-01-30T15:00:28;12.70;;;8.77;;
4833;SDS011;12895;51.064;7.028;2024-01-30T15:03:16;13.77;;;9.60;;
4833;SDS011;12895;51.064;7.028;2024-01-30T15:06:03;15.67;;;9.97;;
4833;SDS011;12895;51.064;7.028;2024-01-30T15:08:51;12.00;;;9.80;;
4833;SDS011;12895;51.064;7.028;2024-01-30T15:11:39;11.10;;;10.00;;
4833;SDS011;12895;51.064;7.028;2024-01-30T15:14:26;15.43;;;10.63;;
4833;SDS011;12895;51.064;7.028;2024-01-30T15:17:13;12.70;;;10.30;;
4833;SDS011;12895;51.064;7.028;2024-01-30T15:20:02;15.80;;;9.97;;
4833;SDS011;12895;51.064;7.028;2024-01-30T15:22:49;15.37;;;9.53;;
4833;SDS011;12895;51.064;7.028;2024-01-30T15:25:36;12.23;;;10.33;;
4833;SDS011;12895;51.064;7.028;2024-01-30T15:28:33;15.83;;;10.30;;
4833;SDS011;12895;51.064;7.028;2024-01-30T15:31:22;12.40;;;9.97;;
4833;SDS011;12895;51.064;7.028;2024-01-30T15:34:09;11.67;;;9.93;;
4833;SDS011;12895;51.064;7.028;2024-01-30T15:37:00;13.50;;;10.00;;
4833;SDS011;12895;51.064;7.028;2024-01-30T15:39:53;11.50;;;9.30;;
4833;SDS011;12895;51.064;7.028;2024-01-30T15:42:40;12.03;;;9.87;;
4833;SDS011;12895;51.064;7.028;2024-01-30T15:45:27;18.70;;;11.63;;
4833;SDS011;12895;51.064;7.028;2024-01-30T15:48:19;11.77;;;10.53;;
4833;SDS011;12895;51.064;7.028;2024-01-30T15:51:06;11.53;;;9.53;;
4833;SDS011;12895;51.064;7.028;2024-01-30T15:53:55;14.40;;;10.60;;
4833;SDS011;12895;51.064;7.028;2024-01-30T15:56:42;11.97;;;10.77;;
4833;SDS011;12895;51.064;7.028;2024-01-30T15:59:30;12.33;;;11.13;;
4833;SDS011;12895;51.064;7.028;2024-01-30T16:02:17;17.20;;;11.33;;
4833;SDS011;12895;51.064;7.028;2024-01-30T16:05:06;13.63;;;12.23;;
4833;SDS011;12895;51.064;7.028;2024-01-30T16:07:53;18.40;;;11.03;;
4833;SDS011;12895;51.064;7.028;2024-01-30T16:10:54;11.67;;;9.87;;
4833;SDS011;12895;51.064;7.028;2024-01-30T16:13:44;14.20;;;10.60;;
4833;SDS011;12895;51.064;7.028;2024-01-30T16:16:36;12.17;;;9.40;;
4833;SDS011;12895;51.064;7.028;2024-01-30T16:19:25;11.10;;;8.87;;
4833;SDS011;12895;51.064;7.028;2024-01-30T16:22:13;7.93;;;6.53;;
4833;SDS011;12895;51.064;7.028;2024-01-30T16:25:00;10.70;;;7.03;;
4833;SDS011;12895;51.064;7.028;2024-01-30T16:27:51;10.30;;;7.40;;
4833;SDS011;12895;51.064;7.028;2024-01-30T16:30:38;8.20;;;6.50;;
4833;SDS011;12895;51.064;7.028;2024-01-30T16:33:25;7.40;;;5.57;;
4833;SDS011;12895;51.064;7.028;2024-01-30T16:36:16;3.90;;;3.37;;
4833;SDS011;12895;51.064;7.028;2024-01-30T16:39:05;6.17;;;3.83;;
4833;SDS011;12895;51.064;7.028;2024-01-30T16:41:53;6.90;;;3.37;;
4833;SDS011;12895;51.064;7.028;2024-01-30T16:44:42;3.50;;;2.63;;
4833;SDS011;12895;51.064;7.028;2024-01-30T16:47:29;2.43;;;2.23;;
4833;SDS011;12895;51.064;7.028;2024-01-30T16:50:17;3.10;;;2.80;;